createdAt,value
2018-10-19T00:02:45.340Z,12.50
2018-10-19T00:07:49.542Z,12.60
2018-10-19T00:12:53.794Z,12.60
2018-10-19T00:17:57.928Z,12.50
2018-10-19T00:23:02.065Z,12.50
2018-10-19T00:28:06.234Z,12.60
2018-10-19T00:33:10.380Z,12.40
2018-10-19T00:38:14.744Z,12.50
2018-10-19T00:43:18.884Z,12.60
2018-10-19T00:48:23.027Z,12.40
2018-10-19T00:53:27.220Z,12.40
2018-10-19T00:58:31.397Z,12.80
2018-10-19T01:03:35.751Z,12.50
2018-10-19T01:08:40.005Z,12.50
2018-10-19T01:13:44.437Z,12.40
2018-10-19T01:18:48.662Z,12.60
2018-10-19T01:23:53.941Z,12.60
2018-10-19T01:28:58.436Z,12.40
2018-10-19T01:34:02.566Z,12.40
2018-10-19T01:39:07.568Z,12.30
2018-10-19T01:44:11.765Z,12.20
2018-10-19T01:49:16.325Z,12.10
2018-10-19T01:54:20.497Z,12.10
2018-10-19T01:59:24.721Z,12.10
2018-10-19T02:04:28.879Z,12.00
2018-10-19T02:09:33.073Z,12.00
2018-10-19T02:14:37.970Z,12.00
2018-10-19T02:19:42.261Z,12.00
2018-10-19T02:24:46.473Z,12.10
2018-10-19T02:29:50.882Z,12.10
2018-10-19T02:34:55.099Z,12.10
2018-10-19T02:39:59.468Z,12.10
2018-10-19T02:45:03.877Z,12.20
2018-10-19T02:50:08.980Z,12.10
2018-10-19T02:55:13.125Z,12.00
2018-10-19T03:00:17.289Z,12.10
2018-10-19T03:05:21.483Z,12.00
2018-10-19T03:10:25.713Z,12.00
2018-10-19T03:15:30.008Z,12.00
2018-10-19T03:20:34.170Z,12.00
2018-10-19T03:25:38.523Z,12.00
2018-10-19T03:30:42.711Z,11.90
2018-10-19T03:35:46.895Z,11.90
2018-10-19T03:40:51.228Z,12.00
2018-10-19T03:45:55.834Z,12.00
2018-10-19T03:51:00.074Z,12.10
2018-10-19T03:56:04.181Z,12.20
2018-10-19T04:01:08.507Z,12.10
2018-10-19T04:06:12.699Z,12.10
2018-10-19T04:11:17.028Z,12.00
2018-10-19T04:16:21.334Z,12.00
2018-10-19T04:21:25.636Z,12.10
2018-10-19T04:26:29.854Z,12.00
2018-10-19T04:31:34.078Z,11.90
2018-10-19T04:36:38.464Z,12.00
2018-10-19T04:41:42.814Z,12.10
2018-10-19T04:46:46.826Z,12.00
2018-10-19T04:51:51.206Z,12.10
2018-10-19T04:56:56.096Z,12.10
2018-10-19T05:02:00.630Z,12.10
2018-10-19T05:07:15.089Z,12.00
2018-10-19T05:12:27.663Z,12.00
2018-10-19T05:17:42.543Z,12.00
2018-10-19T05:23:00.951Z,12.00
2018-10-19T05:33:25.846Z,11.90
2018-10-19T05:38:32.536Z,12.00
2018-10-19T05:44:02.857Z,11.90
2018-10-19T05:49:12.833Z,11.90
2018-10-19T05:54:25.946Z,11.80
2018-10-19T05:59:45.031Z,11.80
2018-10-19T06:05:01.985Z,11.90
2018-10-19T06:15:39.202Z,11.80
2018-10-19T06:20:57.601Z,11.80
2018-10-19T06:26:11.830Z,11.80
2018-10-19T06:31:23.198Z,11.70
2018-10-19T06:36:42.742Z,11.70
2018-10-19T06:41:58.268Z,11.80
2018-10-19T06:47:54.960Z,11.70
2018-10-19T06:53:30.429Z,11.70
2018-10-19T06:58:39.930Z,11.80
2018-10-19T07:03:46.761Z,11.80
2018-10-19T07:09:01.969Z,11.70
2018-10-19T07:14:11.542Z,11.90
2018-10-19T07:24:56.655Z,11.60
2018-10-19T07:30:12.252Z,11.80
2018-10-19T07:35:41.516Z,11.80
2018-10-19T07:46:55.902Z,9.80
2018-10-19T07:57:38.612Z,11.90
2018-10-19T08:03:10.133Z,11.90
2018-10-19T08:08:26.363Z,11.80
2018-10-19T08:13:56.566Z,11.80
2018-10-19T08:19:17.654Z,11.90
2018-10-19T08:24:22.628Z,12.00
2018-10-19T08:29:27.134Z,12.10
2018-10-19T08:34:31.343Z,12.10
2018-10-19T08:39:35.556Z,12.20
2018-10-19T08:44:40.016Z,12.30
2018-10-19T08:49:44.323Z,12.30
2018-10-19T08:54:48.611Z,12.40
2018-10-19T08:59:52.952Z,12.40
2018-10-19T09:04:57.293Z,12.50
2018-10-19T09:10:01.444Z,12.50
2018-10-19T09:15:06.671Z,12.60
2018-10-19T09:20:11.096Z,12.70
2018-10-19T09:25:15.460Z,12.50
2018-10-19T09:30:19.665Z,12.50
2018-10-19T09:35:23.971Z,12.70
2018-10-19T09:40:28.302Z,12.60
2018-10-19T09:45:32.530Z,12.80
2018-10-19T09:50:36.748Z,13.10
2018-10-19T09:55:40.978Z,13.10
2018-10-19T10:00:50.436Z,13.00
2018-10-19T10:05:54.811Z,12.90
2018-10-19T10:10:59.203Z,12.80
2018-10-19T10:16:03.471Z,12.80
2018-10-19T10:21:07.954Z,12.80
2018-10-19T10:26:12.607Z,12.80
2018-10-19T10:31:16.985Z,13.00
2018-10-19T10:36:21.161Z,13.00
2018-10-19T10:41:25.459Z,13.10
2018-10-19T10:46:29.855Z,13.10
2018-10-19T10:51:34.192Z,13.20
2018-10-19T10:56:38.404Z,13.30
2018-10-19T11:01:42.682Z,13.30
2018-10-19T11:06:46.905Z,13.50
2018-10-19T11:11:51.317Z,13.40
2018-10-19T11:16:55.790Z,13.70
2018-10-19T11:22:00.191Z,14.10
2018-10-19T11:27:04.749Z,14.00
2018-10-19T11:32:09.102Z,13.90
2018-10-19T11:37:13.391Z,14.00
2018-10-19T11:42:17.705Z,14.20
2018-10-19T11:47:21.999Z,14.30
2018-10-19T11:52:26.180Z,14.40
2018-10-19T11:57:30.426Z,14.20
2018-10-19T12:02:34.623Z,14.60
2018-10-19T12:13:25.561Z,14.50
2018-10-19T12:18:29.813Z,14.70
2018-10-19T12:23:33.985Z,14.70
2018-10-19T12:28:41.271Z,15.10
2018-10-19T12:33:49.511Z,15.10
2018-10-19T12:38:54.934Z,15.20
2018-10-19T12:43:59.650Z,15.10
2018-10-19T12:49:04.396Z,15.20
2018-10-19T12:54:09.058Z,15.40
2018-10-19T12:59:17.089Z,15.20
2018-10-19T13:04:21.500Z,15.50
2018-10-19T13:09:26.572Z,15.70
2018-10-19T13:14:31.143Z,15.60
2018-10-19T13:19:36.599Z,15.70
2018-10-19T13:24:40.828Z,15.70
2018-10-19T13:29:45.041Z,15.80
2018-10-19T13:34:51.686Z,15.80
2018-10-19T13:39:55.860Z,15.80
2018-10-19T13:45:01.054Z,15.70
2018-10-19T13:50:06.435Z,15.80
2018-10-19T13:55:11.991Z,15.80
2018-10-19T14:00:16.368Z,15.80
2018-10-19T14:05:20.796Z,15.80
2018-10-19T14:10:25.601Z,15.80
2018-10-19T14:15:29.787Z,15.90
2018-10-19T14:20:34.220Z,15.90
2018-10-19T14:25:38.518Z,16.00
2018-10-19T14:30:43.027Z,15.90
2018-10-19T14:35:47.219Z,15.80
2018-10-19T14:40:51.587Z,15.70
2018-10-19T14:45:55.859Z,15.70
2018-10-19T14:51:01.128Z,15.70
2018-10-19T14:56:06.437Z,15.80
2018-10-19T15:01:10.702Z,15.80
2018-10-19T15:06:15.065Z,15.80
2018-10-19T15:11:20.111Z,15.80
2018-10-19T15:16:24.905Z,15.80
2018-10-19T15:21:29.776Z,15.80
2018-10-19T15:26:34.389Z,15.70
2018-10-19T15:31:40.978Z,15.70
2018-10-19T15:36:46.208Z,15.70
2018-10-19T15:41:50.380Z,15.70
2018-10-19T15:46:58.574Z,15.80
2018-10-19T15:52:04.733Z,15.60
2018-10-19T15:57:09.052Z,15.60
2018-10-19T16:02:13.508Z,15.60
2018-10-19T16:07:20.267Z,15.50
2018-10-19T16:12:26.162Z,15.50
2018-10-19T16:17:31.789Z,15.50
2018-10-19T16:22:36.248Z,15.40
2018-10-19T16:27:41.315Z,15.30
2018-10-19T16:32:46.928Z,15.40
2018-10-19T16:37:51.183Z,15.30
2018-10-19T16:42:56.133Z,15.30
2018-10-19T16:48:00.450Z,15.30
2018-10-19T16:53:04.767Z,15.20
2018-10-19T16:58:09.601Z,15.20
2018-10-19T17:03:15.154Z,15.10
2018-10-19T17:08:19.608Z,15.00
2018-10-19T17:13:23.897Z,15.10
2018-10-19T17:18:30.043Z,15.00
2018-10-19T17:23:34.478Z,15.00
2018-10-19T17:28:40.755Z,15.00
2018-10-19T17:33:45.891Z,14.90
2018-10-19T17:38:50.827Z,14.90
2018-10-19T17:43:57.293Z,14.90
2018-10-19T17:49:04.664Z,14.90
2018-10-19T17:54:10.569Z,14.90
2018-10-19T17:59:18.954Z,14.80
2018-10-19T18:04:25.117Z,15.00
2018-10-19T18:09:32.979Z,15.10
2018-10-19T18:14:38.958Z,15.10
2018-10-19T18:19:44.348Z,15.00
2018-10-19T18:24:49.717Z,15.10
2018-10-19T18:29:53.957Z,15.10
2018-10-19T18:35:00.742Z,15.10
2018-10-19T18:40:09.953Z,14.70
2018-10-19T18:45:14.758Z,14.90
2018-10-19T18:50:21.284Z,15.10
2018-10-19T18:55:27.636Z,15.10
2018-10-19T19:00:31.920Z,15.00
2018-10-19T19:05:38.658Z,14.90
2018-10-19T19:10:45.479Z,14.90
2018-10-19T19:15:51.028Z,14.60
2018-10-19T19:21:00.097Z,14.60
2018-10-19T19:26:13.109Z,14.40
2018-10-19T19:31:23.576Z,14.70
2018-10-19T19:36:29.313Z,14.60
2018-10-19T19:41:39.551Z,14.80
2018-10-19T19:46:44.298Z,14.70
2018-10-19T19:51:48.870Z,14.60
2018-10-19T19:56:54.115Z,14.50
2018-10-19T20:01:59.099Z,14.40
2018-10-19T20:07:03.386Z,13.90
2018-10-19T20:12:09.172Z,13.90
2018-10-19T20:17:14.463Z,14.20
2018-10-19T20:22:19.392Z,13.70
2018-10-19T20:27:24.686Z,13.50
2018-10-19T20:32:29.897Z,13.50
2018-10-19T20:37:34.115Z,13.80
2018-10-19T20:42:39.179Z,13.40
2018-10-19T20:47:45.939Z,13.30
2018-10-19T20:52:51.024Z,13.90
2018-10-19T20:57:55.277Z,14.00
2018-10-19T21:03:01.084Z,14.00
2018-10-19T21:08:06.785Z,14.00
2018-10-19T21:13:11.512Z,14.20
2018-10-19T21:18:15.754Z,14.10
2018-10-19T21:23:19.936Z,14.00
2018-10-19T21:28:24.199Z,13.60
2018-10-19T21:33:29.037Z,13.90
2018-10-19T21:38:34.269Z,13.50
2018-10-19T21:43:40.762Z,13.30
2018-10-19T21:48:45.271Z,13.30
2018-10-19T21:53:49.419Z,13.00
2018-10-19T21:58:55.694Z,13.10
2018-10-19T22:04:00.593Z,13.20
2018-10-19T22:09:08.878Z,12.90
2018-10-19T22:14:13.592Z,13.30
2018-10-19T22:19:18.444Z,13.50
2018-10-19T22:24:22.708Z,13.40
2018-10-19T22:29:26.912Z,13.40
2018-10-19T22:34:31.160Z,13.40
2018-10-19T22:39:36.494Z,12.80
2018-10-19T22:44:42.501Z,12.70
2018-10-19T22:49:46.725Z,13.10
2018-10-19T22:54:51.913Z,12.80
2018-10-19T22:59:57.911Z,12.80
2018-10-19T23:05:02.163Z,12.70
2018-10-19T23:10:07.507Z,12.60
2018-10-19T23:15:11.725Z,12.50
2018-10-19T23:20:15.923Z,12.20
2018-10-19T23:25:20.746Z,11.90
2018-10-19T23:30:25.114Z,12.00
2018-10-19T23:35:30.296Z,11.90
2018-10-19T23:40:34.490Z,11.80
2018-10-19T23:45:39.733Z,12.00
2018-10-19T23:50:47.073Z,12.30
2018-10-19T23:55:51.451Z,12.40
